• Join FlightAware (Why Join?)
  • Login
  • US Flag 
08:12AM EDT


 

Airport Tracker/Info


-or-


 

Live Flight TrackerFlight Track Log ✈ UAL4695 ✈ 22-Apr-2013 ✈ KSAV - KEWR

Flight Track Log - Related Links

Times and Time Zones

All times are in EDT time to prevent confusion due to time zone crossing. See the UAL4695 flight status page for this flight to view local times or setup timezone preferences in your user account.

Time Position Orientation Groundspeed Altitude Reporting Facility
EDT Latitude Longitude Course Direction KTS MPH feet Rate Location/Type
07:04PM 32.1817 -81.1497 31° Northeast 240 276 3,700  Level Jacksonville Center
07:05PM 32.2447 -81.1878 333° Northwest 263 303 6,000 2,220 Climbing Jacksonville Center
07:06PM 32.3075 -81.1867 North 258 297 8,200 2,400 Climbing Jacksonville Center
07:07PM 32.3825 -81.1781 North 265 305 10,800 1,980 Climbing Jacksonville Center
07:08PM 32.4597 -81.1764 North 266 306 12,200 1,500 Climbing Jacksonville Center
07:09PM 33.0935 -80.4964 31° Northeast  Level Estimated
07:09PM 32.5511 -81.1500 14° North 298 343 13,800  Level Jacksonville Center
07:10PM 32.6278 -81.1067 25° Northeast 317 365 14,800 900 Climbing Jacksonville Center
07:11PM 32.7128 -81.0556 27° Northeast 324 373 15,600 900 Climbing Jacksonville Center
07:12PM 32.8081 -81.0017 25° Northeast 349 402 16,700 1,020 Climbing Jacksonville Center
07:13PM 32.9031 -80.9478 25° Northeast 361 415 17,700 900 Climbing Jacksonville Center
07:14PM 32.9983 -80.8914 26° Northeast 373 429 18,600 960 Climbing Jacksonville Center
07:15PM 33.0975 -80.8344 26° Northeast 383 441 19,700 1,080 Climbing Jacksonville Center
07:16PM 33.1989 -80.7775 25° Northeast 389 448 20,800 1,080 Climbing Jacksonville Center
07:17PM 33.3106 -80.7128 26° Northeast 394 453 21,900 1,080 Climbing Jacksonville Center
07:18PM 33.4178 -80.6506 26° Northeast 406 467 23,000 1,020 Climbing Jacksonville Center
07:19PM 33.5278 -80.6128 16° North 411 473 24,000 900 Climbing Jacksonville Center
07:20PM 33.6406 -80.6197 357° North 399 459 24,800 840 Climbing Jacksonville Center
07:21PM 33.7575 -80.6244 358° North 404 465 25,700 900 Climbing Jacksonville Center
07:22PM 33.8669 -80.5614 26° Northeast 409 471 26,600 840 Climbing Jacksonville Center
07:23PM 33.9700 -80.4836 32° Northeast 420 483 27,400 840 Climbing Jacksonville Center
07:24PM 34.0769 -80.4106 29° Northeast 425 489 28,300 840 Climbing Jacksonville Center
07:25PM 34.1819 -80.3322 32° Northeast 432 497 29,100 840 Climbing Jacksonville Center
07:26PM 34.2867 -80.2536 32° Northeast 442 509 30,000 840 Climbing Jacksonville Center
07:28PM 34.5411 -80.0622 32° Northeast 459 528 32,100 840 Climbing Washington Center
07:29PM 34.6461 -79.9844 31° Northeast 468 539 32,900 840 Climbing Washington Center
07:30PM 34.7597 -79.9047 30° Northeast 474 545 33,800 900 Climbing Washington Center
07:31PM 34.8797 -79.8125 32° Northeast 474 545 34,700 600 Climbing Washington Center
07:32PM 34.9953 -79.7272 31° Northeast 474 545 35,000 120 Climbing Washington Center
07:33PM 35.1131 -79.6392 31° Northeast 486 559 35,000  Level Washington Center
07:34PM 35.2350 -79.5514 30° Northeast 492 566 35,000  Level Washington Center
07:35PM 35.3569 -79.4631 31° Northeast 497 572 35,000  Level Washington Center
07:36PM 35.4658 -79.3817 31° Northeast 503 579 35,000  Level Washington Center
07:37PM 35.6006 -79.2833 31° Northeast 503 579 35,000  Level Washington Center
07:38PM 35.7242 -79.1944 30° Northeast 503 579 35,000  Level Washington Center
07:39PM 35.8458 -79.1050 31° Northeast 503 579 35,000  Level Washington Center
07:40PM 35.9717 -79.0131 31° Northeast 503 579 35,000  Level Washington Center
07:41PM 36.0908 -78.9258 31° Northeast 508 585 35,000  Level Washington Center
07:42PM 36.2144 -78.8333 31° Northeast 508 585 35,000  Level Washington Center
07:43PM 36.3400 -78.7406 31° Northeast 508 585 35,000  Level Washington Center
07:44PM 36.4633 -78.6472 31° Northeast 513 590 35,000  Level Washington Center
07:45PM 36.5869 -78.5511 32° Northeast 513 590 35,000  Level Washington Center
07:46PM 36.6975 -78.4672 31° Northeast 513 590 35,000  Level Washington Center
07:47PM 36.8228 -78.3733 31° Northeast 518 596 35,000  Level Washington Center
07:48PM 36.9608 -78.2639 32° Northeast 531 611 35,000  Level Washington Center
07:49PM 37.0881 -78.1694 31° Northeast 531 611 35,000  Level Washington Center
07:50PM 37.2006 -78.0819 32° Northeast 531 611 35,000  Level Washington Center
07:51PM 37.3275 -77.9842 31° Northeast 531 611 35,000  Level Washington Center
07:52PM 37.4547 -77.8861 31° Northeast 531 611 35,000  Level Washington Center
07:53PM 37.5797 -77.7825 33° Northeast 531 611 35,000  Level Washington Center
07:54PM 37.7006 -77.6731 36° Northeast 531 611 35,000  Level Washington Center
07:55PM 37.8214 -77.5608 36° Northeast 542 624 35,000 -60 Level Washington Center
07:56PM 37.9378 -77.4586 35° Northeast 528 608 34,900 -60 Descending Washington Center
07:57PM 38.0456 -77.3611 35° Northeast 501 577 34,900  Level Washington Center
07:58PM 38.1533 -77.2606 36° Northeast 480 552 34,900 -180 Level Washington Center
08:00PM 38.2864 -77.1392 36° Northeast 480 552 34,600 -600 Descending Washington Center
08:01PM 38.3917 -77.0381 37° Northeast 480 552 33,700 -960 Descending Washington Center
08:02PM 38.4994 -76.9367 36° Northeast 480 552 32,800 -960 Descending Washington Center
08:03PM 38.6044 -76.8431 35° Northeast 480 552 31,800 -900 Descending Washington Center
08:04PM 38.7014 -76.7489 37° Northeast 461 531 31,000 -420 Descending Washington Center
08:05PM 38.7900 -76.6489 41° Northeast 435 501 31,000  Level Washington Center
08:06PM 38.8783 -76.5464 42° Northeast 421 484 31,000  Level Washington Center
08:07PM 38.9708 -76.4381 42° Northeast 426 490 31,000  Level Washington Center
08:08PM 39.0653 -76.3322 41° Northeast 431 496 31,000  Level Washington Center
08:09PM 39.1672 -76.3572 349° North 380 437 31,000  Level Washington Center
08:10PM 39.1750 -76.4672 275° West 234 269 31,000 -360 Level Washington Center
08:11PM 39.1264 -76.5361 228° Southwest 177 204 30,300 -900 Descending Washington Center
08:12PM 39.0717 -76.5942 219° Southwest 215 247 29,300 -1,020 Descending Washington Center
08:13PM 39.0033 -76.5611 159° South 203 234 28,300 -960 Descending Washington Center
08:14PM 39.0356 -76.4306 72° East 189 217 27,400 -660 Descending Washington Center
08:15PM 39.1175 -76.3139 48° Northeast 295 339 27,000 -240 Descending Washington Center
08:16PM 39.1953 -76.1942 50° Northeast 352 405 27,000  Level Washington Center
08:17PM 39.2833 -76.0794 45° Northeast 411 473 27,000  Level Washington Center
08:18PM 39.3733 -75.9728 42° Northeast 417 480 27,000 -840 Level Washington Center
08:19PM 39.4611 -75.8658 43° Northeast 429 494 25,400 -2,100 Descending Washington Center
08:20PM 39.5467 -75.7664 42° Northeast 424 488 22,900 -3,000 Descending Washington Center
08:21PM 39.6239 -75.6750 42° Northeast 397 457 19,500 -2,940 Descending Washington Center
08:22PM 39.7011 -75.5833 42° Northeast 385 443 17,100 -2,100 Descending Washington Center
08:23PM 39.7781 -75.5239 31° Northeast 351 404 15,400 -1,740 Descending Washington Center
08:24PM 39.8594 -75.4700 27° Northeast 325 374 13,600 -1,200 Descending Washington Center
08:25PM 39.9072 -75.3750 57° Northeast 312 359 13,000 -360 Descending Washington Center
08:26PM 39.9631 -75.2719 55° Northeast 303 349 12,900 -60 Descending Washington Center
08:27PM 40.0253 -75.1906 45° Northeast 308 354 12,900 -480 Level Washington Center
08:28PM 40.0897 -75.1114 43° Northeast 308 354 12,000 -1,200 Descending Washington Center
08:29PM 40.1497 -75.0378 43° Northeast 308 354 10,500 -1,500 Descending Washington Center
08:30PM 40.2078 -74.9639 44° Northeast 297 342 9,000 -1,320 Descending Washington Center
08:31PM 40.2636 -74.8900 45° Northeast 292 336 7,900 -540 Descending Washington Center
08:32PM 40.2256 -74.8253 128° Southeast 170 196 8,000  Climbing Washington Center
08:33PM 40.1761 -74.8828 222° Southwest 103 119 8,000  Level Washington Center
08:34PM 40.1408 -74.9483 235° Southwest 174 200 8,000  Level Washington Center
08:35PM 40.1911 -74.9722 340° North 114 131 8,000  Level Washington Center
08:36PM 40.2469 -74.9175 37° Northeast 129 148 8,000  Level Washington Center
08:37PM 40.2694 -74.8519 66° East 168 193 8,000  Level Washington Center
08:38PM 40.2175 -74.8553 183° South 87 100 8,000  Level Washington Center
08:39PM 40.1761 -74.9128 227° Southwest 132 152 8,000  Level Washington Center
08:40PM 40.1764 -74.9778 270° West 163 188 8,000 120 Level Washington Center
08:40PM 40.2000 -74.9667 20° North 240 276 8,200 60 Climbing New York TRACON
08:41PM 40.2500 -74.9000 45° Northeast 279 321 8,100 -60 Descending New York TRACON
08:42PM 40.3167 -74.8333 37° Northeast 284 327 8,100 -180 Level New York TRACON
08:43PM 40.3667 -74.7500 52° Northeast 251 289 7,800 -900 Descending New York TRACON
08:44PM 40.4167 -74.7000 37° Northeast 241 277 6,300 -1,260 Descending New York TRACON
08:45PM 40.4833 -74.6667 21° North 226 260 5,200 -600 Descending New York TRACON
08:46PM 40.5167 -74.6333 37° Northeast 214 246 5,100 -180 Descending New York TRACON
08:47PM 40.4667 -74.5833 143° Southeast 206 237 4,900 -540 Descending New York TRACON
08:48PM 40.4333 -74.5500 143° Southeast 188 216 4,000 -960 Descending New York TRACON
08:49PM 40.3833 -74.5333 166° South 176 203 3,100 -480 Descending New York TRACON
08:50PM 40.3667 -74.4667 108° East 155 178 3,100  Level New York TRACON
08:51PM 40.4000 -74.4167 49° Northeast 170 196 3,100  Level New York TRACON
08:52PM 40.4167 -74.3667 66° East 170 196 3,100  Level New York TRACON